OING  Gorgan  Airport

Gorgan, Iran

Add Bookmark
ICAO OING
IATA GBT
Type Airport
Status Operational
Latitude
36° 54' 33" N
36.909401
Longitude
54° 24' 4" E
54.401299
Local (GMT +4.5 ) UTC
Aug 26, 2016 11:05 am Aug 26, 2016 06:35
Sunrise-Sunset Local UTC
Begin Civil Twilight 05:50 am 01:20
Sunrise 06:17 am 01:47
Sunset 07:30 pm 15:00
End Civil Twilight 07:57 pm 15:27
VFR
VFR
MVFR
MVFR
IFR
IFR
LIFR
LIFR
Unknown
Unavailable

Current Weather

METAR Observed VFR
OING 260600Z 28004KT CAVOK 31/16 Q1014 Fri, Aug 26, 2016 @ 06:00 UTC
(35 Minutes ago)
Visual Flight Rules
Wind Visibility Conditions
280° at 4 knots (7 kph) 10 km or more
  • No significant weather
Temperatures Readings Precipitation
Current Temp
31°C
88°F
Dewpoint
16°C
61°F
Heat Index
31°C
88°
Humidity 40%
Altimeter 29.94" Hg
Sea Level Pressure 1,014 mb
Field Elevation
155 m
509 ft
None Recorded

Additional weather within a 92.6km radius of OING

Map ICAO Location
OINK 72.6km E/NE (058°)
VFR
VFR
MVFR
MVFR
IFR
IFR
LIFR
LIFR
Unknown
Unavailable
-
-

CheckWX.com is intended as a tool to help pilots better visualize weather data. It is not intended as a substitute for an official weather briefing obtained from a Flight Service Station. CheckWX.com does not meet the FAA requirements for an official pre-flight weather briefing. Therefore, it's important that pilots still call and obtain an official FSS pre-flight weather briefing.

© 2007-2016 CheckWX.com
06:35:45 UTC